Time;durP1;ratioP1;P1;durP2;ratioP2;P2;SDS_P1;SDS_P2;PMS_P1;PMS_P2;Temp;Humidity;BMP_temperature;BMP_pressure;BME280_temperature;BME280_humidity;BME280_pressure;Samples;Min_cycle;Max_cycle;Signal;HPM_P1;HPM_P2
2023/06/23 00:00:36;;;;;;;;;;;;;;;;;;5034001;28;19921;-94
2023/06/23 00:03:01;;;;;;;;;;;;;;;;;;5013916;28;19906;-95
2023/06/23 00:05:28;;;;;;;;;;;;;;;;;;5017861;28;19925;-95
2023/06/23 00:07:54;;;;;;;;;;;;;;;;;;5021109;28;19970;-90
2023/06/23 00:10:20;;;;;;;;;;;;;;;;;;5032124;28;19976;-93
2023/06/23 00:12:47;;;;;;;;;;;;;;;;;;5016601;28;19925;-96
2023/06/23 00:15:12;;;;;;;;;;;;;;;;;;5023460;28;19921;-94
2023/06/23 00:17:39;;;;;;;;;;;;;;;;;;5022702;28;19928;-92
2023/06/23 00:20:09;;;;;;;;;;;;;;;;;;5021592;28;19928;-93
2023/06/23 00:22:35;;;;;;;;;;;;;;;;;;5022627;28;19928;-94
2023/06/23 00:25:01;;;;;;;;;;;;;;;;;;5020916;28;19921;-94
2023/06/23 00:27:26;;;;;;;;;;;;;;;;;;5021511;28;19921;-95
2023/06/23 00:29:52;;;;;;;;;;;;;;;;;;5037961;28;19925;-92
2023/06/23 00:32:18;;;;;;;;;;;;;;;;;;5037500;28;19921;-94
2023/06/23 00:34:44;;;;;;;;;;;;;;;;;;5021340;28;20452;-93
2023/06/23 00:37:10;;;;;;;;;;;;;;;;;;5021370;28;19921;-93
2023/06/23 00:39:36;;;;;;;;;;;;;;;;;;5037806;28;19967;-94
2023/06/23 00:42:02;;;;;;;;;;;;;;;;;;5021527;28;19906;-90
2023/06/23 00:44:28;;;;;;;;;;;;;;;;;;5021552;28;19921;-95
2023/06/23 00:46:54;;;;;;;;;;;;;;;;;;5037753;28;19944;-90
2023/06/23 00:49:20;;;;;;;;;;;;;;;;;;5037643;28;19998;-92
2023/06/23 00:51:46;;;;;;;;;;;;;;;;;;5020761;28;19951;-93
2023/06/23 00:54:12;;;;;;;;;;;;;;;;;;5021630;28;20370;-94
2023/06/23 00:56:38;;;;;;;;;;;;;;;;;;5021536;28;19921;-93
2023/06/23 00:59:05;;;;;;;;;;;;;;;;;;5020101;28;19925;-93
2023/06/23 01:01:31;;;;;;;;;;;;;;;;;;5020853;28;20202;-94
2023/06/23 01:03:57;;;;;;;;;;;;;;;;;;5021197;28;19921;-94
2023/06/23 01:06:23;;;;;;;;;;;;;;;;;;5025849;28;19921;-96
2023/06/23 01:08:49;;;;;;;;;;;;;;;;;;5025138;28;19948;-95
2023/06/23 01:11:15;;;;;;;;;;;;;;;;;;5024347;28;19929;-92
2023/06/23 01:16:44;;;;;;;;;;;;;;;;;;5041769;28;20050;-95
2023/06/23 01:19:10;;;;;;;;;;;;;;;;;;5025904;28;19964;-94
2023/06/23 01:21:38;;;;;;;;;;;;;;;;;;5043098;28;19964;-92
2023/06/23 01:24:05;;;;;;;;;;;;;;;;;;5024942;28;19921;-92
2023/06/23 01:26:31;;;;;;;;;;;;;;;;;;5025681;28;19936;-95
2023/06/23 01:28:57;;;;;;;;;;;;;;;;;;5041477;28;20255;-94
2023/06/23 01:31:23;;;;;;;;;;;;;;;;;;5023214;28;19925;-92
2023/06/23 01:33:49;;;;;;;;;;;;;;;;;;5023414;28;19921;-95
2023/06/23 01:36:14;;;;;;;;;;;;;;;;;;5040365;28;20385;-90
2023/06/23 01:38:40;;;;;;;;;;;;;;;;;;5023865;28;19921;-93
2023/06/23 01:41:06;;;;;;;;;;;;;;;;;;5041520;28;19928;-93
2023/06/23 01:43:32;;;;;;;;;;;;;;;;;;5025291;28;19945;-94
2023/06/23 01:45:58;;;;;;;;;;;;;;;;;;5025325;28;19925;-96
2023/06/23 01:48:24;;;;;;;;;;;;;;;;;;5024926;28;19971;-94
2023/06/23 01:50:50;;;;;;;;;;;;;;;;;;5023128;28;20016;-94
2023/06/23 01:53:16;;;;;;;;;;;;;;;;;;5024648;28;19928;-93
2023/06/23 01:55:42;;;;;;;;;;;;;;;;;;5025413;28;20381;-92
2023/06/23 01:58:08;;;;;;;;;;;;;;;;;;5024736;28;19928;-96
2023/06/23 02:00:34;;;;;;;;;;;;;;;;;;5024839;28;19921;-95
2023/06/23 02:03:00;;;;;;;;;;;;;;;;;;5024222;28;19928;-95
2023/06/23 02:05:25;;;;;;;;;;;;;;;;;;5023638;28;19947;-93
2023/06/23 02:07:51;;;;;;;;;;;;;;;;;;5024226;28;19982;-93
2023/06/23 02:10:17;;;;;;;;;;;;;;;;;;5023972;28;20376;-95
2023/06/23 02:12:43;;;;;;;;;;;;;;;;;;5024072;28;19927;-95
2023/06/23 02:15:09;;;;;;;;;;;;;;;;;;5023787;28;19921;-92
2023/06/23 02:17:35;;;;;;;;;;;;;;;;;;5039090;28;19925;-94
2023/06/23 02:20:05;;;;;;;;;;;;;;;;;;5023229;28;19925;-94
2023/06/23 02:22:32;;;;;;;;;;;;;;;;;;5023479;28;19921;-93
2023/06/23 02:24:58;;;;;;;;;;;;;;;;;;5024233;28;19925;-95
2023/06/23 02:27:23;;;;;;;;;;;;;;;;;;5040713;28;20396;-92
2023/06/23 02:29:49;;;;;;;;;;;;;;;;;;5022740;28;20429;-91
2023/06/23 02:32:16;;;;;;;;;;;;;;;;;;5021604;28;20006;-95
2023/06/23 02:34:42;;;;;;;;;;;;;;;;;;5039694;28;20271;-93
2023/06/23 02:37:11;;;;;;;;;;;;;;;;;;5038972;28;19963;-93
2023/06/23 02:39:37;;;;;;;;;;;;;;;;;;5022547;28;19921;-94
2023/06/23 02:42:03;;;;;;;;;;;;;;;;;;5041453;28;19975;-95
2023/06/23 02:44:29;;;;;;;;;;;;;;;;;;5040287;28;19921;-94
2023/06/23 02:46:56;;;;;;;;;;;;;;;;;;5025341;28;19998;-93
2023/06/23 02:49:22;;;;;;;;;;;;;;;;;;5042847;28;19921;-95
2023/06/23 02:51:48;;;;;;;;;;;;;;;;;;5025846;28;19913;-93
2023/06/23 02:54:14;;;;;;;;;;;;;;;;;;5024354;28;19963;-93
2023/06/23 02:56:41;;;;;;;;;;;;;;;;;;5023175;28;20366;-93
2023/06/23 02:59:07;;;;;;;;;;;;;;;;;;5024025;28;19928;-95
2023/06/23 03:01:33;;;;;;;;;;;;;;;;;;5025161;28;20013;-94
2023/06/23 03:03:59;;;;;;;;;;;;;;;;;;5024127;28;19921;-94
2023/06/23 03:06:25;;;;;;;;;;;;;;;;;;5024104;28;19925;-93
2023/06/23 03:08:51;;;;;;;;;;;;;;;;;;5023098;28;19988;-90
2023/06/23 03:11:17;;;;;;;;;;;;;;;;;;5023055;28;20378;-95
2023/06/23 03:13:46;;;;;;;;;;;;;;;;;;5023592;28;19967;-94
2023/06/23 03:16:12;;;;;;;;;;;;;;;;;;5024438;28;19979;-94
2023/06/23 03:18:38;;;;;;;;;;;;;;;;;;5023553;28;19929;-94
2023/06/23 03:21:05;;;;;;;;;;;;;;;;;;5022037;28;19928;-95
2023/06/23 03:23:31;;;;;;;;;;;;;;;;;;5039834;28;19921;-91
2023/06/23 03:25:56;;;;;;;;;;;;;;;;;;5022383;28;20012;-92
2023/06/23 03:28:25;;;;;;;;;;;;;;;;;;5020863;28;19928;-94
2023/06/23 03:30:51;;;;;;;;;;;;;;;;;;5038012;28;19964;-94
2023/06/23 03:33:17;;;;;;;;;;;;;;;;;;5038397;28;19921;-93
2023/06/23 03:35:43;;;;;;;;;;;;;;;;;;5037940;28;20385;-94
2023/06/23 03:38:08;;;;;;;;;;;;;;;;;;5020270;28;20359;-94
2023/06/23 03:40:34;;;;;;;;;;;;;;;;;;5020566;28;19991;-91
2023/06/23 03:43:00;;;;;;;;;;;;;;;;;;5020332;28;19928;-94
2023/06/23 03:45:26;;;;;;;;;;;;;;;;;;5020164;28;19921;-94
2023/06/23 03:47:52;;;;;;;;;;;;;;;;;;5020709;28;19928;-92
2023/06/23 03:50:18;;;;;;;;;;;;;;;;;;5020252;28;19925;-90
2023/06/23 03:52:44;;;;;;;;;;;;;;;;;;5038205;28;19925;-93
2023/06/23 03:55:10;;;;;;;;;;;;;;;;;;5021784;28;19983;-92
2023/06/23 03:57:36;;;;;;;;;;;;;;;;;;5022233;28;19925;-93
2023/06/23 04:00:02;;;;;;;;;;;;;;;;;;5023256;28;19945;-96
2023/06/23 04:02:29;;;;;;;;;;;;;;;;;;5038201;28;20148;-95
2023/06/23 04:04:55;;;;;;;;;;;;;;;;;;5036341;28;20117;-94
2023/06/23 04:07:21;;;;;;;;;;;;;;;;;;5020515;28;19921;-93
2023/06/23 04:09:47;;;;;;;;;;;;;;;;;;5020301;28;19932;-94
2023/06/23 04:12:13;;;;;;;;;;;;;;;;;;5020269;28;20348;-93
2023/06/23 04:14:39;;;;;;;;;;;;;;;;;;5020121;28;19929;-91
2023/06/23 04:17:05;;;;;;;;;;;;;;;;;;5019449;28;19929;-91
2023/06/23 04:19:31;;;;;;;;;;;;;;;;;;5037241;28;20267;-93
2023/06/23 04:21:57;;;;;;;;;;;;;;;;;;5020091;28;19921;-94
2023/06/23 04:24:23;;;;;;;;;;;;;;;;;;5020725;28;20410;-94
2023/06/23 04:26:49;;;;;;;;;;;;;;;;;;5020158;28;19928;-91
2023/06/23 04:29:14;;;;;;;;;;;;;;;;;;5037056;28;19921;-94
2023/06/23 04:31:40;;;;;;;;;;;;;;;;;;5019974;28;19936;-93
2023/06/23 04:34:06;;;;;;;;;;;;;;;;;;5019222;28;19968;-94
2023/06/23 04:36:32;;;;;;;;;;;;;;;;;;5020097;28;19928;-94
2023/06/23 04:38:58;;;;;;;;;;;;;;;;;;5021226;28;19947;-94
2023/06/23 04:41:24;;;;;;;;;;;;;;;;;;5024682;28;19928;-95
2023/06/23 04:43:50;;;;;;;;;;;;;;;;;;5025751;28;19921;-95
2023/06/23 04:46:16;;;;;;;;;;;;;;;;;;5042572;28;20366;-94
2023/06/23 04:48:42;;;;;;;;;;;;;;;;;;5023036;28;19936;-89
2023/06/23 04:51:08;;;;;;;;;;;;;;;;;;5028695;28;19925;-96
2023/06/23 04:53:34;;;;;;;;;;;;;;;;;;5017504;28;19917;-90
2023/06/23 04:56:06;;;;;;;;;;;;;;;;;;5027047;28;19967;-93
2023/06/23 04:58:32;;;;;;;;;;;;;;;;;;5030416;28;19921;-95
2023/06/23 05:00:58;;;;;;;;;;;;;;;;;;5026782;28;19930;-93
2023/06/23 05:03:24;;;;;;;;;;;;;;;;;;5034861;28;19932;-96
2023/06/23 05:05:51;;;;;;;;;;;;;;;;;;5038694;28;19922;-91
2023/06/23 05:08:17;;;;;;;;;;;;;;;;;;5037677;28;20016;-93
2023/06/23 05:10:43;;;;;;;;;;;;;;;;;;5039676;28;19925;-95
2023/06/23 05:13:11;;;;;;;;;;;;;;;;;;5037502;28;19925;-94
2023/06/23 05:15:38;;;;;;;;;;;;;;;;;;5050238;28;19936;-95
2023/06/23 05:18:04;;;;;;;;;;;;;;;;;;5030465;28;20095;-94
2023/06/23 05:20:30;;;;;;;;;;;;;;;;;;5034042;28;19921;-93
2023/06/23 05:22:56;;;;;;;;;;;;;;;;;;5034151;28;19925;-96
2023/06/23 05:25:23;;;;;;;;;;;;;;;;;;5035352;28;20136;-95
2023/06/23 05:27:52;;;;;;;;;;;;;;;;;;5048543;28;19983;-96
2023/06/23 05:30:18;;;;;;;;;;;;;;;;;;5035042;28;19940;-93
2023/06/23 05:32:44;;;;;;;;;;;;;;;;;;5052948;28;20380;-94
2023/06/23 05:35:10;;;;;;;;;;;;;;;;;;5035557;28;19921;-92
2023/06/23 05:37:36;;;;;;;;;;;;;;;;;;5035672;28;19936;-96
2023/06/23 05:40:03;;;;;;;;;;;;;;;;;;5034710;28;19959;-95
2023/06/23 05:42:32;;;;;;;;;;;;;;;;;;5030816;28;19929;-94
2023/06/23 05:44:58;;;;;;;;;;;;;;;;;;5031021;28;20019;-93
2023/06/23 05:47:24;;;;;;;;;;;;;;;;;;5033636;28;19971;-94
2023/06/23 05:49:50;;;;;;;;;;;;;;;;;;5029963;28;19925;-96
2023/06/23 05:52:16;;;;;;;;;;;;;;;;;;5018236;28;19961;-94
2023/06/23 05:54:42;;;;;;;;;;;;;;;;;;5008416;28;19922;-95
2023/06/23 05:57:08;;;;;;;;;;;;;;;;;;5011920;28;19986;-94
2023/06/23 05:59:37;;;;;;;;;;;;;;;;;;5028921;28;19981;-93
2023/06/23 06:02:03;;;;;;;;;;;;;;;;;;5010448;28;20445;-96
2023/06/23 06:04:29;;;;;;;;;;;;;;;;;;5009842;28;19933;-95
2023/06/23 06:06:55;;;;;;;;;;;;;;;;;;5008060;28;20016;-93
2023/06/23 06:09:21;;;;;;;;;;;;;;;;;;5025217;28;19928;-94
2023/06/23 06:11:47;;;;;;;;;;;;;;;;;;5006220;28;19910;-95
2023/06/23 06:14:13;;;;;;;;;;;;;;;;;;5006914;28;20025;-92
2023/06/23 06:16:38;;;;;;;;;;;;;;;;;;5005177;28;19921;-90
2023/06/23 06:19:04;;;;;;;;;;;;;;;;;;5005850;28;19945;-92
2023/06/23 06:21:32;;;;;;;;;;;;;;;;;;5009904;28;19922;-95
2023/06/23 06:23:58;;;;;;;;;;;;;;;;;;5008998;28;19959;-89
2023/06/23 06:26:24;;;;;;;;;;;;;;;;;;5007050;28;19960;-94
2023/06/23 06:28:50;;;;;;;;;;;;;;;;;;5024137;28;19926;-90
2023/06/23 06:31:16;;;;;;;;;;;;;;;;;;5016393;28;19940;-95
2023/06/23 06:33:42;;;;;;;;;;;;;;;;;;5043275;28;20812;-95
2023/06/23 06:36:09;;;;;;;;;;;;;;;;;;5018649;28;19925;-94
2023/06/23 06:38:35;;;;;;;;;;;;;;;;;;5042184;28;19921;-95
2023/06/23 06:41:01;;;;;;;;;;;;;;;;;;5020825;28;20341;-93
2023/06/23 06:43:27;;;;;;;;;;;;;;;;;;5015875;28;20008;-94
2023/06/23 06:45:53;;;;;;;;;;;;;;;;;;5024546;28;20022;-94
2023/06/23 06:48:19;;;;;;;;;;;;;;;;;;5023782;28;19929;-94
2023/06/23 06:50:45;;;;;;;;;;;;;;;;;;5008221;28;19925;-95
2023/06/23 06:53:19;;;;;;;;;;;;;;;;;;5031602;28;19928;-94
2023/06/23 06:55:45;;;;;;;;;;;;;;;;;;5031115;28;19925;-95
2023/06/23 06:58:11;;;;;;;;;;;;;;;;;;5032046;28;19927;-92
2023/06/23 07:00:37;;;;;;;;;;;;;;;;;;5039782;28;19924;-93
2023/06/23 07:03:03;;;;;;;;;;;;;;;;;;5024826;28;19921;-94
2023/06/23 07:05:29;;;;;;;;;;;;;;;;;;5023677;28;20381;-93
2023/06/23 07:07:55;;;;;;;;;;;;;;;;;;5023600;28;19927;-94
2023/06/23 07:10:21;;;;;;;;;;;;;;;;;;5021629;28;19925;-93
2023/06/23 07:12:47;;;;;;;;;;;;;;;;;;5039990;28;19979;-92
2023/06/23 07:15:14;;;;;;;;;;;;;;;;;;5025183;28;19928;-93
2023/06/23 07:20:43;;;;;;;;;;;;;;;;;;5027930;28;19919;-94
2023/06/23 07:25:55;;;;;;;;;;;;;;;;;;5031649;28;19921;-95
2023/06/23 07:28:21;;;;;;;;;;;;;;;;;;5021751;28;19944;-92
2023/06/23 07:30:46;;;;;;;;;;;;;;;;;;5022429;28;20293;-93
2023/06/23 07:33:12;;;;;;;;;;;;;;;;;;5022229;28;19921;-90
2023/06/23 07:35:38;;;;;;;;;;;;;;;;;;5038080;28;20012;-91
2023/06/23 07:38:04;;;;;;;;;;;;;;;;;;5023125;28;19960;-95
2023/06/23 07:40:33;;;;;;;;;;;;;;;;;;5025528;28;19932;-96
2023/06/23 07:42:59;;;;;;;;;;;;;;;;;;5013662;28;20350;-95
2023/06/23 07:45:25;;;;;;;;;;;;;;;;;;5024760;28;19932;-96
2023/06/23 07:47:51;;;;;;;;;;;;;;;;;;5019116;28;19905;-94
2023/06/23 07:50:17;;;;;;;;;;;;;;;;;;5021320;28;19928;-94
2023/06/23 07:52:43;;;;;;;;;;;;;;;;;;5018103;28;20290;-92
2023/06/23 07:55:09;;;;;;;;;;;;;;;;;;5021267;28;19921;-95
2023/06/23 08:00:39;;;;;;;;;;;;;;;;;;5047942;28;19924;-91
2023/06/23 08:03:05;;;;;;;;;;;;;;;;;;5024733;28;19952;-89
2023/06/23 08:05:32;;;;;;;;;;;;;;;;;;5026078;28;20457;-92
2023/06/23 08:07:58;;;;;;;;;;;;;;;;;;5027103;28;19929;-90
2023/06/23 08:10:24;;;;;;;;;;;;;;;;;;5039711;28;19925;-93
2023/06/23 08:12:50;;;;;;;;;;;;;;;;;;5018196;28;19980;-89
2023/06/23 08:15:16;;;;;;;;;;;;;;;;;;5020589;28;19929;-95
2023/06/23 08:17:42;;;;;;;;;;;;;;;;;;5028590;28;19943;-94
2023/06/23 08:20:09;;;;;;;;;;;;;;;;;;5027306;28;19936;-93
2023/06/23 08:22:35;;;;;;;;;;;;;;;;;;5040137;28;19931;-93
2023/06/23 08:25:01;;;;;;;;;;;;;;;;;;5039312;28;19925;-92
2023/06/23 08:27:27;;;;;;;;;;;;;;;;;;5007376;28;21417;-92
2023/06/23 08:29:52;;;;;;;;;;;;;;;;;;5016648;28;19971;-91
2023/06/23 08:32:18;;;;;;;;;;;;;;;;;;5023146;28;19929;-96
2023/06/23 08:34:44;;;;;;;;;;;;;;;;;;5011635;28;19916;-93
2023/06/23 08:37:10;;;;;;;;;;;;;;;;;;5003761;28;19968;-94
2023/06/23 08:39:36;;;;;;;;;;;;;;;;;;5004037;28;19972;-92
2023/06/23 08:42:02;;;;;;;;;;;;;;;;;;5002548;28;19906;-93
2023/06/23 08:44:28;;;;;;;;;;;;;;;;;;5004868;28;19925;-95
2023/06/23 08:46:56;;;;;;;;;;;;;;;;;;5019961;28;19926;-89
2023/06/23 08:49:22;;;;;;;;;;;;;;;;;;5003514;28;20040;-95
2023/06/23 08:51:48;;;;;;;;;;;;;;;;;;5004213;28;19925;-93
2023/06/23 08:54:14;;;;;;;;;;;;;;;;;;5005040;28;19926;-93
2023/06/23 08:56:39;;;;;;;;;;;;;;;;;;5004689;28;19932;-93
2023/06/23 08:59:05;;;;;;;;;;;;;;;;;;5004822;28;19980;-94
2023/06/23 09:01:31;;;;;;;;;;;;;;;;;;5020434;28;19926;-93
2023/06/23 09:03:57;;;;;;;;;;;;;;;;;;5005094;28;19929;-93
2023/06/23 09:06:23;;;;;;;;;;;;;;;;;;5005147;28;19926;-94
2023/06/23 09:08:49;;;;;;;;;;;;;;;;;;5020778;28;19932;-94
2023/06/23 09:11:15;;;;;;;;;;;;;;;;;;5020982;28;19926;-94
2023/06/23 09:13:41;;;;;;;;;;;;;;;;;;5004834;28;19910;-94
2023/06/23 09:16:07;;;;;;;;;;;;;;;;;;5004965;28;19936;-92
2023/06/23 09:18:35;;;;;;;;;;;;;;;;;;5004976;28;19925;-92
2023/06/23 09:21:02;;;;;;;;;;;;;;;;;;5005510;28;19994;-93
2023/06/23 09:23:31;;;;;;;;;;;;;;;;;;5006315;28;19930;-95
2023/06/23 09:25:56;;;;;;;;;;;;;;;;;;5023044;28;19930;-92
2023/06/23 09:28:22;;;;;;;;;;;;;;;;;;5007872;28;20404;-94
2023/06/23 09:30:48;;;;;;;;;;;;;;;;;;5024374;28;19949;-95
2023/06/23 09:33:14;;;;;;;;;;;;;;;;;;5008878;28;19970;-94
2023/06/23 09:35:40;;;;;;;;;;;;;;;;;;5007688;28;19964;-94
2023/06/23 09:38:06;;;;;;;;;;;;;;;;;;5008495;28;20382;-94
2023/06/23 09:40:32;;;;;;;;;;;;;;;;;;5024209;28;19929;-96
2023/06/23 09:42:58;;;;;;;;;;;;;;;;;;5008775;28;19936;-94
2023/06/23 09:45:24;;;;;;;;;;;;;;;;;;5025799;28;19925;-95
2023/06/23 09:47:50;;;;;;;;;;;;;;;;;;5009710;28;19971;-94
2023/06/23 09:50:16;;;;;;;;;;;;;;;;;;5008030;28;19929;-94
2023/06/23 09:52:42;;;;;;;;;;;;;;;;;;5007755;28;19932;-95
2023/06/23 09:55:08;;;;;;;;;;;;;;;;;;5008495;28;19984;-95
2023/06/23 09:57:34;;;;;;;;;;;;;;;;;;5008487;28;19975;-90
2023/06/23 10:00:00;;;;;;;;;;;;;;;;;;5007224;28;19922;-91
2023/06/23 10:02:26;;;;;;;;;;;;;;;;;;5023828;28;19929;-94
2023/06/23 10:04:52;;;;;;;;;;;;;;;;;;5009545;28;19926;-92
2023/06/23 10:07:18;;;;;;;;;;;;;;;;;;5024899;28;19985;-93
2023/06/23 10:09:44;;;;;;;;;;;;;;;;;;5009871;28;20459;-91
2023/06/23 10:12:11;;;;;;;;;;;;;;;;;;5025627;28;19925;-94
2023/06/23 10:14:37;;;;;;;;;;;;;;;;;;5010973;28;19951;-93
2023/06/23 10:17:02;;;;;;;;;;;;;;;;;;5011989;28;19925;-93
2023/06/23 10:19:28;;;;;;;;;;;;;;;;;;5008061;28;20042;-90
2023/06/23 10:21:54;;;;;;;;;;;;;;;;;;5021387;28;19926;-90
2023/06/23 10:24:22;;;;;;;;;;;;;;;;;;5026004;28;19974;-92
2023/06/23 10:26:48;;;;;;;;;;;;;;;;;;5013111;28;19925;-90
2023/06/23 10:29:14;;;;;;;;;;;;;;;;;;5009592;28;19922;-93
2023/06/23 10:31:40;;;;;;;;;;;;;;;;;;5006513;28;19952;-92
2023/06/23 10:34:06;;;;;;;;;;;;;;;;;;5019968;28;19925;-93
2023/06/23 10:36:32;;;;;;;;;;;;;;;;;;5025133;28;19905;-88
2023/06/23 10:38:58;;;;;;;;;;;;;;;;;;5024140;28;19921;-89
2023/06/23 10:41:23;;;;;;;;;;;;;;;;;;5025465;28;19921;-90
2023/06/23 10:43:49;;;;;;;;;;;;;;;;;;5041255;28;19979;-93
2023/06/23 10:46:15;;;;;;;;;;;;;;;;;;5026135;28;19931;-93
2023/06/23 10:48:41;;;;;;;;;;;;;;;;;;5025204;28;20393;-89
2023/06/23 10:51:07;;;;;;;;;;;;;;;;;;5025058;28;20389;-92
2023/06/23 10:53:33;;;;;;;;;;;;;;;;;;5025871;28;19925;-92
2023/06/23 10:55:59;;;;;;;;;;;;;;;;;;5024678;28;19921;-91
2023/06/23 10:58:25;;;;;;;;;;;;;;;;;;5025107;28;19928;-91
2023/06/23 11:00:51;;;;;;;;;;;;;;;;;;5041847;28;19976;-91
2023/06/23 11:03:17;;;;;;;;;;;;;;;;;;5025420;28;19921;-91
2023/06/23 11:05:43;;;;;;;;;;;;;;;;;;5024606;28;19921;-93
2023/06/23 11:08:09;;;;;;;;;;;;;;;;;;5026011;28;20016;-94
2023/06/23 11:10:35;;;;;;;;;;;;;;;;;;5024292;28;19976;-92
2023/06/23 11:13:01;;;;;;;;;;;;;;;;;;5023888;28;19905;-92
2023/06/23 11:15:27;;;;;;;;;;;;;;;;;;5041526;28;19925;-91
2023/06/23 11:17:53;;;;;;;;;;;;;;;;;;5039632;28;19921;-91
2023/06/23 11:20:19;;;;;;;;;;;;;;;;;;5022281;28;20390;-90
2023/06/23 11:22:45;;;;;;;;;;;;;;;;;;5039867;28;19927;-91
2023/06/23 11:25:11;;;;;;;;;;;;;;;;;;5040592;28;19980;-90
2023/06/23 11:27:37;;;;;;;;;;;;;;;;;;5040692;28;20025;-91
2023/06/23 11:30:03;;;;;;;;;;;;;;;;;;5024570;28;19968;-92
2023/06/23 11:32:29;;;;;;;;;;;;;;;;;;5024542;28;19925;-93
2023/06/23 11:34:56;;;;;;;;;;;;;;;;;;5040837;28;19971;-92
2023/06/23 11:37:22;;;;;;;;;;;;;;;;;;5024058;28;19928;-92
2023/06/23 11:39:49;;;;;;;;;;;;;;;;;;5024508;28;19925;-92
2023/06/23 11:42:15;;;;;;;;;;;;;;;;;;5026207;28;19925;-92
2023/06/23 11:44:41;;;;;;;;;;;;;;;;;;5042996;28;19921;-92
2023/06/23 11:47:06;;;;;;;;;;;;;;;;;;5041093;28;20008;-93
2023/06/23 11:49:32;;;;;;;;;;;;;;;;;;5024492;28;19932;-92
2023/06/23 11:51:58;;;;;;;;;;;;;;;;;;5024588;28;19921;-92
2023/06/23 11:54:24;;;;;;;;;;;;;;;;;;5024748;28;19940;-93
2023/06/23 11:56:50;;;;;;;;;;;;;;;;;;5024256;28;19925;-92
2023/06/23 11:59:16;;;;;;;;;;;;;;;;;;5022413;28;20393;-89
2023/06/23 12:01:42;;;;;;;;;;;;;;;;;;5022697;28;19921;-92
2023/06/23 12:04:08;;;;;;;;;;;;;;;;;;5022612;28;19921;-92
2023/06/23 12:06:36;;;;;;;;;;;;;;;;;;5040639;28;19984;-91
2023/06/23 12:09:02;;;;;;;;;;;;;;;;;;5039186;28;20302;-92
2023/06/23 12:11:29;;;;;;;;;;;;;;;;;;5022897;28;20400;-91
2023/06/23 12:13:57;;;;;;;;;;;;;;;;;;5022889;28;19925;-93
2023/06/23 12:16:23;;;;;;;;;;;;;;;;;;5023682;28;20294;-93
2023/06/23 12:18:49;;;;;;;;;;;;;;;;;;5023522;28;19928;-91
2023/06/23 12:21:15;;;;;;;;;;;;;;;;;;5022472;28;19976;-92
2023/06/23 12:23:41;;;;;;;;;;;;;;;;;;5039207;28;19928;-92
2023/06/23 12:26:07;;;;;;;;;;;;;;;;;;5040031;28;19929;-91
2023/06/23 12:28:33;;;;;;;;;;;;;;;;;;5038734;28;19928;-92
2023/06/23 12:30:59;;;;;;;;;;;;;;;;;;5018309;28;19929;-94
2023/06/23 12:33:25;;;;;;;;;;;;;;;;;;5022748;28;19976;-93
2023/06/23 12:35:51;;;;;;;;;;;;;;;;;;5022218;28;19921;-91
2023/06/23 12:38:17;;;;;;;;;;;;;;;;;;5021536;28;20435;-88
2023/06/23 12:40:44;;;;;;;;;;;;;;;;;;5013745;28;19966;-90
2023/06/23 12:43:11;;;;;;;;;;;;;;;;;;5035166;28;19933;-92
2023/06/23 12:45:37;;;;;;;;;;;;;;;;;;5024522;28;20032;-92
2023/06/23 12:48:03;;;;;;;;;;;;;;;;;;5024040;28;19921;-92
2023/06/23 12:52:58;;;;;;;;;;;;;;;;;;5028972;28;19989;-90
2023/06/23 12:55:24;;;;;;;;;;;;;;;;;;5023883;28;19928;-92
2023/06/23 12:57:50;;;;;;;;;;;;;;;;;;5041528;28;19921;-92
2023/06/23 13:00:16;;;;;;;;;;;;;;;;;;5037328;28;19925;-94
2023/06/23 13:02:42;;;;;;;;;;;;;;;;;;5028219;28;19932;-95
2023/06/23 13:05:08;;;;;;;;;;;;;;;;;;5028676;28;19921;-93
2023/06/23 13:07:35;;;;;;;;;;;;;;;;;;5028515;28;19924;-92
2023/06/23 13:10:02;;;;;;;;;;;;;;;;;;5018399;28;19945;-96
2023/06/23 13:12:28;;;;;;;;;;;;;;;;;;5029952;28;19940;-93
2023/06/23 13:14:54;;;;;;;;;;;;;;;;;;5016203;28;19925;-95
2023/06/23 13:17:20;;;;;;;;;;;;;;;;;;5045089;28;20357;-90
2023/06/23 13:19:46;;;;;;;;;;;;;;;;;;5030208;28;19912;-95
2023/06/23 13:22:11;;;;;;;;;;;;;;;;;;5031255;28;19925;-96
2023/06/23 13:24:40;;;;;;;;;;;;;;;;;;5046857;28;20020;-95
2023/06/23 13:27:08;;;;;;;;;;;;;;;;;;5032704;28;19929;-94
2023/06/23 13:29:37;;;;;;;;;;;;;;;;;;5032610;28;19932;-90
2023/06/23 13:32:03;;;;;;;;;;;;;;;;;;5031080;28;19975;-96
2023/06/23 13:34:29;;;;;;;;;;;;;;;;;;5029136;28;20377;-96
2023/06/23 13:36:55;;;;;;;;;;;;;;;;;;5046603;28;19929;-95
2023/06/23 13:39:21;;;;;;;;;;;;;;;;;;5029421;28;19925;-95
2023/06/23 13:41:47;;;;;;;;;;;;;;;;;;5028413;28;19925;-95
2023/06/23 13:44:15;;;;;;;;;;;;;;;;;;5028585;28;19933;-95
2023/06/23 13:46:41;;;;;;;;;;;;;;;;;;5046147;28;19933;-95
2023/06/23 13:49:08;;;;;;;;;;;;;;;;;;5028621;28;19931;-96
2023/06/23 13:51:34;;;;;;;;;;;;;;;;;;5028317;28;19910;-96
2023/06/23 13:54:00;;;;;;;;;;;;;;;;;;5043746;28;19913;-95
2023/06/23 13:56:26;;;;;;;;;;;;;;;;;;5045430;28;19951;-92
2023/06/23 13:58:52;;;;;;;;;;;;;;;;;;5027028;28;19971;-90
2023/06/23 14:01:18;;;;;;;;;;;;;;;;;;5027489;28;19921;-93
2023/06/23 14:03:43;;;;;;;;;;;;;;;;;;5029351;28;19925;-96
2023/06/23 14:06:09;;;;;;;;;;;;;;;;;;5029563;28;19921;-95
2023/06/23 14:08:35;;;;;;;;;;;;;;;;;;5028439;28;19988;-95
2023/06/23 14:11:02;;;;;;;;;;;;;;;;;;5044514;28;20080;-95
2023/06/23 14:13:28;;;;;;;;;;;;;;;;;;5043868;28;19921;-93
2023/06/23 14:15:54;;;;;;;;;;;;;;;;;;5027735;28;19971;-96
2023/06/23 14:18:20;;;;;;;;;;;;;;;;;;5027525;28;19925;-96
2023/06/23 14:20:46;;;;;;;;;;;;;;;;;;5028435;28;20447;-96
2023/06/23 14:23:12;;;;;;;;;;;;;;;;;;5043134;28;20366;-94
2023/06/23 14:25:38;;;;;;;;;;;;;;;;;;5028814;28;20008;-95
2023/06/23 14:28:04;;;;;;;;;;;;;;;;;;5026002;28;19921;-94
2023/06/23 14:30:30;;;;;;;;;;;;;;;;;;5026324;28;19968;-89
2023/06/23 14:32:56;;;;;;;;;;;;;;;;;;5027233;28;19912;-96
2023/06/23 14:35:22;;;;;;;;;;;;;;;;;;5044108;28;19921;-93
2023/06/23 14:37:48;;;;;;;;;;;;;;;;;;5044583;28;20030;-90
2023/06/23 14:40:13;;;;;;;;;;;;;;;;;;5026596;28;19926;-96
2023/06/23 14:42:41;;;;;;;;;;;;;;;;;;5029869;28;19925;-96
2023/06/23 14:45:07;;;;;;;;;;;;;;;;;;5044286;28;19929;-96
2023/06/23 14:47:35;;;;;;;;;;;;;;;;;;5044915;28;19968;-92
2023/06/23 14:50:01;;;;;;;;;;;;;;;;;;5045317;28;19924;-96
2023/06/23 14:52:27;;;;;;;;;;;;;;;;;;5028920;28;19933;-96
2023/06/23 14:54:53;;;;;;;;;;;;;;;;;;5027708;28;19932;-94
2023/06/23 14:57:19;;;;;;;;;;;;;;;;;;5028174;28;19932;-91
2023/06/23 14:59:45;;;;;;;;;;;;;;;;;;5028370;28;19939;-96
2023/06/23 15:02:11;;;;;;;;;;;;;;;;;;5028213;28;19921;-96
2023/06/23 15:04:37;;;;;;;;;;;;;;;;;;5026818;28;19925;-96
2023/06/23 15:07:03;;;;;;;;;;;;;;;;;;5044225;28;19925;-95
2023/06/23 15:09:29;;;;;;;;;;;;;;;;;;5043434;28;19913;-93
2023/06/23 15:11:55;;;;;;;;;;;;;;;;;;5028656;28;19932;-95
2023/06/23 15:14:21;;;;;;;;;;;;;;;;;;5026496;28;19929;-96
2023/06/23 15:16:47;;;;;;;;;;;;;;;;;;5045744;28;19953;-92
2023/06/23 15:19:14;;;;;;;;;;;;;;;;;;5026518;28;19925;-96
2023/06/23 15:21:40;;;;;;;;;;;;;;;;;;5027250;28;19932;-96
2023/06/23 15:24:06;;;;;;;;;;;;;;;;;;5028918;28;20400;-94
2023/06/23 15:26:32;;;;;;;;;;;;;;;;;;5027265;28;19921;-95
2023/06/23 15:28:58;;;;;;;;;;;;;;;;;;5045419;28;19991;-95
2023/06/23 15:31:24;;;;;;;;;;;;;;;;;;5027505;28;19933;-96
2023/06/23 15:33:50;;;;;;;;;;;;;;;;;;5044779;28;19932;-95
2023/06/23 15:36:16;;;;;;;;;;;;;;;;;;5028846;28;19925;-96
2023/06/23 15:38:42;;;;;;;;;;;;;;;;;;5029031;28;19987;-95
2023/06/23 15:41:09;;;;;;;;;;;;;;;;;;5030112;28;19928;-95
2023/06/23 15:43:35;;;;;;;;;;;;;;;;;;5028527;28;19925;-96
2023/06/23 15:46:04;;;;;;;;;;;;;;;;;;5029624;28;20026;-96
2023/06/23 15:48:30;;;;;;;;;;;;;;;;;;5047111;28;19933;-96
2023/06/23 15:50:56;;;;;;;;;;;;;;;;;;5029745;28;19925;-93
2023/06/23 16:04:06;;;;;;;;;;;;;;;;;;5059191;27;1963302;-95
2023/06/23 16:06:32;;;;;;;;;;;;;;;;;;5106359;28;20426;-95
2023/06/23 16:09:01;;;;;;;;;;;;;;;;;;5108244;28;19970;-92
2023/06/23 16:11:27;;;;;;;;;;;;;;;;;;5106515;27;19985;-96
2023/06/23 16:13:53;;;;;;;;;;;;;;;;;;5123284;28;19935;-95
2023/06/23 16:16:19;;;;;;;;;;;;;;;;;;5105648;28;20373;-93
2023/06/23 16:18:45;;;;;;;;;;;;;;;;;;5123367;28;19919;-95
2023/06/23 16:21:11;;;;;;;;;;;;;;;;;;5123466;28;19919;-96
2023/06/23 16:23:37;;;;;;;;;;;;;;;;;;5106594;28;20310;-95
2023/06/23 16:26:03;;;;;;;;;;;;;;;;;;5106139;28;19923;-93
2023/06/23 16:28:29;;;;;;;;;;;;;;;;;;5123684;28;20478;-95
2023/06/23 16:30:55;;;;;;;;;;;;;;;;;;5105936;28;20451;-95
2023/06/23 16:33:21;;;;;;;;;;;;;;;;;;5106362;28;19928;-96
2023/06/23 16:35:47;;;;;;;;;;;;;;;;;;5122865;28;19919;-93
2023/06/23 16:38:13;;;;;;;;;;;;;;;;;;5105150;28;19923;-95
2023/06/23 16:40:41;;;;;;;;;;;;;;;;;;5105792;28;19920;-95
2023/06/23 16:43:06;;;;;;;;;;;;;;;;;;5105480;28;19911;-93
2023/06/23 16:45:32;;;;;;;;;;;;;;;;;;5123931;28;19926;-95
2023/06/23 16:47:59;;;;;;;;;;;;;;;;;;5105816;28;19927;-91
2023/06/23 16:50:25;;;;;;;;;;;;;;;;;;5102780;28;19920;-95
2023/06/23 16:52:51;;;;;;;;;;;;;;;;;;5103616;28;19930;-92
2023/06/23 16:55:17;;;;;;;;;;;;;;;;;;5102634;28;19923;-95
2023/06/23 16:57:43;;;;;;;;;;;;;;;;;;5103367;28;20445;-94
2023/06/23 17:00:09;;;;;;;;;;;;;;;;;;5104210;28;19920;-96
2023/06/23 17:02:36;;;;;;;;;;;;;;;;;;5104628;28;20000;-95